Etusivu
METAR-TAF:

METAR-TAF

Lentoasemat :

Den Helder, Alankomaat

Leveyspiiri: 52-55N, Pituuspiiri: 004-47E, korkeus merenpinnasta: 0 m

Tämänhetkinen sää

Tämä raportti tehtiin 34 minuuttia sitten, kello 13.55 UTC
Tuuli 16 kn etelästä, vaihdellen kaakon ja etelän/lounaan välillä
Lämpötila 7°C
Kosteus 70%
Ilmanpaine 982 hPa
Näkyvyys 10 km tai enemmän
Hajonneita pilviä 3000 ft:n korkeudessa
Hajonneita pilviä 3500 ft:n korkeudessa

METAR: EHKD 041355Z AUTO 17016KT 140V200 9999 BKN030 BKN035 07/02 Q0982 BLU NOSIG

Aika: 15:29 (14:29 UTC)

Sääennuste

Tämä raportti tehtiin 1 tunti ja 19 minuuttia sitten, kello 13.10 UTC
Ennuste voimassa 04. päivästä klo 14 UTC - 05. päivään klo 02 UTC
Tuuli 20 kn etelästä puuskistuen 30 kn:hen
Näkyvyys 10 km tai enemmän
Hajonneita pilviä 2500 ft:n korkeudessa
Tulossa
04. päivästä klo 16 UTC - 04. päivään klo 19 UTC
Tuuli 15 kn etelästä/kaakosta

TAF: EHKD 041310Z 0414/0502 18020G30KT 9999 BKN025 BECMG 0416/0419 16015KT

Säähavainnot ja -ennusteet yli 4000 lentoasemalta (METAR- ja TAF-raportit).

Käytössä olevat sääasemat on merkitty karttaan keltaisilla ja punaisilla pisteillä.

Aseta hiiri pisteen päälle nähdäksesi sääaseman nimen.

Klikkaa sitten nähdäksesi säähavainnot ja -ennusteet.

Kartan vaihtaminen: klikkaa mustalla rastilla varustettuja vihreitä pisteitä, niin voit zoomata sisään; viivalla varustettua vihreää pistettä, niin voit zoomata ulos tai vihreitä nuolia, niin pääset viereisille kartoille.


METAR-TAF: